KCMX/CMX METAR and TAF weather

Enter ICAO airport designator
Station Type Date Time Source
KCMX METAR 2019/06/16 06:53 UTC NOAA

KCMX 160653Z AUTO 06004KT 10SM CLR 09/04 A2992 RMK AO2 SLP136 T00890039


Station Type Date Time Source
KCMX Decoded METAR 2019/06/16 06:53 UTC NOAA

HANCOCK HOUGHTON CTY. MEMO, MI, United States (KCMX) 47-10N 088-29W 326M
Jun 16, 2019 - 02:53 AM EDT / 2019.06.16 0653 UTC
Wind: from the ENE (060 degrees) at 5 MPH (4 KT):0
Visibility: 10 mile(s):0
Sky conditions: clear
Temperature: 48.0 F (8.9 C)
Dew Point: 39.0 F (3.9 C)
Relative Humidity: 70%
Pressure (altimeter): 29.92 in. Hg (1013 hPa)
ob: KCMX 160653Z AUTO 06004KT 10SM CLR 09/04 A2992 RMK AO2 SLP136 T00890039
cycle: 7

Station Type Date Time Source
KCMX TAF 2019/06/16 06:24 UTC NOAA

TAF KCMX 160522Z 1606/1706 VRB04KT P6SM BKN200
FM161200 09008KT P6SM BKN120
FM170400 VRB03KT P6SM SCT150

Example: see airport list